createdAt,value
2019-04-30T00:02:34.391Z,38.05
2019-04-30T00:05:00.733Z,39.50
2019-04-30T00:07:32.537Z,35.55
2019-04-30T00:10:06.118Z,37.00
2019-04-30T00:12:39.662Z,41.42
2019-04-30T00:15:16.209Z,41.90
2019-04-30T00:17:45.997Z,36.93
2019-04-30T00:20:18.720Z,37.42
2019-04-30T00:22:50.869Z,33.42
2019-04-30T00:25:24.947Z,35.40
2019-04-30T00:28:00.244Z,34.98
2019-04-30T00:30:35.085Z,39.30
2019-04-30T00:33:08.163Z,35.68
2019-04-30T00:35:40.327Z,35.40
2019-04-30T00:38:15.132Z,37.20
2019-04-30T00:40:46.938Z,37.60
2019-04-30T00:43:18.791Z,40.92
2019-04-30T00:45:50.553Z,42.65
2019-04-30T00:48:27.994Z,36.58
2019-04-30T00:50:55.922Z,40.28
2019-04-30T00:53:27.824Z,31.95
2019-04-30T00:55:59.591Z,36.53
2019-04-30T00:58:32.004Z,36.38
2019-04-30T01:01:22.434Z,42.17
2019-04-30T01:04:00.055Z,39.85
2019-04-30T01:06:31.841Z,40.88
2019-04-30T01:09:05.418Z,29.35
2019-04-30T01:11:39.742Z,31.30
2019-04-30T01:14:13.368Z,30.97
2019-04-30T01:16:46.854Z,37.03
2019-04-30T01:19:29.170Z,33.88
2019-04-30T01:21:56.001Z,32.75
2019-04-30T01:24:31.435Z,34.55
2019-04-30T01:27:06.951Z,35.17
2019-04-30T01:29:40.753Z,37.70
2019-04-30T01:32:10.455Z,41.50
2019-04-30T01:34:44.233Z,44.40
2019-04-30T01:37:20.262Z,44.25
2019-04-30T01:39:50.607Z,43.38
2019-04-30T01:42:22.564Z,36.20
2019-04-30T01:44:55.966Z,37.30
2019-04-30T01:47:29.518Z,36.63
2019-04-30T01:50:04.876Z,38.70
2019-04-30T01:52:53.297Z,36.85
2019-04-30T01:55:50.076Z,29.42
2019-04-30T01:58:33.151Z,40.98
2019-04-30T02:01:09.110Z,38.23
2019-04-30T02:03:41.256Z,37.60
2019-04-30T02:06:13.141Z,46.40
2019-04-30T02:08:44.984Z,34.03
2019-04-30T02:11:19.095Z,39.88
2019-04-30T02:13:51.747Z,36.17
2019-04-30T02:16:23.482Z,26.52
2019-04-30T02:18:55.322Z,35.68
2019-04-30T02:21:29.924Z,33.92
2019-04-30T02:24:01.562Z,32.93
2019-04-30T02:26:33.713Z,28.77
2019-04-30T02:29:05.551Z,29.37
2019-04-30T02:31:37.330Z,28.30
2019-04-30T02:34:21.783Z,31.17
2019-04-30T02:36:59.844Z,34.50
2019-04-30T02:39:31.645Z,35.83
2019-04-30T02:42:03.746Z,25.20
2019-04-30T02:44:35.674Z,29.72
2019-04-30T02:47:10.475Z,31.40
2019-04-30T02:49:42.439Z,40.80
2019-04-30T02:52:15.898Z,34.70
2019-04-30T02:54:49.992Z,43.20
2019-04-30T02:57:23.699Z,33.02
2019-04-30T03:00:12.928Z,45.50
2019-04-30T03:02:46.331Z,50.28
2019-04-30T03:05:20.307Z,54.80
2019-04-30T03:07:53.536Z,62.73
2019-04-30T03:10:25.234Z,91.78
2019-04-30T03:13:00.173Z,92.25
2019-04-30T03:15:33.079Z,89.55
2019-04-30T03:18:25.075Z,88.92
2019-04-30T03:21:09.637Z,94.75
2019-04-30T03:23:40.999Z,92.10
2019-04-30T03:26:13.139Z,81.65
2019-04-30T03:28:44.942Z,94.20
2019-04-30T03:31:22.477Z,78.33
2019-04-30T03:33:52.736Z,67.27
2019-04-30T03:36:24.497Z,69.12
2019-04-30T03:38:56.298Z,49.60
2019-04-30T03:41:33.101Z,44.67
2019-04-30T03:44:17.274Z,54.08
2019-04-30T03:46:39.804Z,51.80
2019-04-30T03:49:13.405Z,61.85
2019-04-30T03:51:46.817Z,52.45
2019-04-30T03:54:19.519Z,50.73
2019-04-30T03:56:53.023Z,53.92
2019-04-30T03:59:24.890Z,56.80
2019-04-30T04:02:12.941Z,47.25
2019-04-30T04:04:52.812Z,51.58
2019-04-30T04:07:43.706Z,46.92
2019-04-30T04:10:34.292Z,50.52
2019-04-30T04:13:10.207Z,59.03
2019-04-30T04:15:42.007Z,49.63
2019-04-30T04:18:13.834Z,38.45
2019-04-30T04:20:45.974Z,42.27
2019-04-30T04:23:19.308Z,46.45
2019-04-30T04:25:51.395Z,38.85
2019-04-30T04:28:23.210Z,45.90
2019-04-30T04:30:55.404Z,44.70
2019-04-30T04:33:29.453Z,44.70
2019-04-30T04:36:01.906Z,38.98
2019-04-30T04:38:33.677Z,38.50
2019-04-30T04:41:05.422Z,51.42
2019-04-30T04:43:43.195Z,52.25
2019-04-30T04:46:15.397Z,61.50
2019-04-30T04:48:50.314Z,62.38
2019-04-30T04:51:36.804Z,61.02
2019-04-30T04:53:55.917Z,69.60
2019-04-30T04:56:30.246Z,66.77
2019-04-30T04:59:01.189Z,77.10
2019-04-30T05:01:35.680Z,68.67
2019-04-30T05:04:11.503Z,64.35
2019-04-30T05:06:41.536Z,60.85
2019-04-30T05:09:13.295Z,60.15
2019-04-30T05:11:45.031Z,58.68
2019-04-30T05:14:18.971Z,54.53
2019-04-30T05:16:55.285Z,50.00
2019-04-30T05:19:28.663Z,62.75
2019-04-30T05:22:01.077Z,50.35
2019-04-30T05:24:33.059Z,47.93
2019-04-30T05:27:04.877Z,49.48
2019-04-30T05:29:38.605Z,56.73
2019-04-30T05:32:10.330Z,49.73
2019-04-30T05:34:42.091Z,44.15
2019-04-30T05:37:14.220Z,45.95
2019-04-30T05:39:45.968Z,44.05
2019-04-30T05:42:18.497Z,36.50
2019-04-30T05:44:50.524Z,36.88
2019-04-30T05:47:22.388Z,36.83
2019-04-30T05:49:54.259Z,37.05
2019-04-30T05:52:29.519Z,40.95
2019-04-30T05:55:01.478Z,42.73
2019-04-30T05:57:33.259Z,35.50
2019-04-30T06:00:06.346Z,44.88
2019-04-30T06:02:39.925Z,37.83
2019-04-30T06:05:11.692Z,42.35
2019-04-30T06:07:43.611Z,45.83
2019-04-30T06:10:26.364Z,52.70
2019-04-30T06:13:09.083Z,42.62
2019-04-30T06:15:51.399Z,41.77
2019-04-30T06:18:23.152Z,36.10
2019-04-30T06:20:55.974Z,38.70
2019-04-30T06:23:29.379Z,40.83
2019-04-30T06:26:09.409Z,38.98
2019-04-30T06:28:36.657Z,40.30
2019-04-30T06:31:09.096Z,36.73
2019-04-30T06:33:41.554Z,38.53
2019-04-30T06:36:13.368Z,34.80
2019-04-30T06:38:45.599Z,35.13
2019-04-30T06:41:17.489Z,39.85
2019-04-30T06:43:49.289Z,36.42
2019-04-30T06:46:21.038Z,32.13
2019-04-30T06:48:54.982Z,41.23
2019-04-30T06:51:30.583Z,36.75
2019-04-30T06:54:00.530Z,37.80
2019-04-30T06:56:32.341Z,44.27
2019-04-30T06:59:04.239Z,37.95
2019-04-30T07:01:36.074Z,36.75
2019-04-30T07:04:07.832Z,39.38
2019-04-30T07:06:44.015Z,37.50
2019-04-30T07:09:43.610Z,35.65
2019-04-30T07:12:27.154Z,35.43
2019-04-30T07:14:52.253Z,30.43
2019-04-30T07:17:24.010Z,33.55
2019-04-30T07:20:01.301Z,37.48
2019-04-30T07:25:09.853Z,39.30
2019-04-30T07:27:42.946Z,42.60
2019-04-30T07:30:14.753Z,35.17
2019-04-30T07:32:48.230Z,36.48
2019-04-30T07:35:19.993Z,37.15
2019-04-30T07:37:54.686Z,37.80
2019-04-30T07:40:29.012Z,36.65
2019-04-30T07:43:00.350Z,36.15
2019-04-30T07:45:32.373Z,32.58
2019-04-30T07:48:04.429Z,31.87
2019-04-30T07:50:36.745Z,34.13
2019-04-30T07:53:11.205Z,35.70
2019-04-30T07:55:42.357Z,34.15
2019-04-30T07:58:14.121Z,32.50
2019-04-30T08:00:50.345Z,38.63
2019-04-30T08:03:40.349Z,39.80
2019-04-30T08:06:13.310Z,35.00
2019-04-30T08:08:45.593Z,41.48
2019-04-30T08:09:34.154Z,34.60
2019-04-30T08:11:25.629Z,35.73
2019-04-30T08:13:51.715Z,35.48
2019-04-30T08:16:24.247Z,33.42
2019-04-30T08:18:56.937Z,43.58
2019-04-30T08:21:34.322Z,40.17
2019-04-30T08:24:13.636Z,34.75
2019-04-30T08:26:47.019Z,40.50
2019-04-30T08:29:19.481Z,33.35
2019-04-30T08:31:51.447Z,33.88
2019-04-30T08:34:23.258Z,32.23
2019-04-30T08:36:56.341Z,31.23
2019-04-30T08:39:31.821Z,33.18
2019-04-30T08:42:04.070Z,33.13
2019-04-30T08:44:35.913Z,33.42
2019-04-30T08:47:11.627Z,32.75
2019-04-30T08:49:43.856Z,35.70
2019-04-30T08:52:15.897Z,35.10
2019-04-30T08:54:51.506Z,32.80
2019-04-30T08:57:24.398Z,37.42
2019-04-30T08:59:56.157Z,36.17
2019-04-30T09:02:31.067Z,37.17
2019-04-30T09:05:09.531Z,39.78
2019-04-30T09:07:42.297Z,30.23
2019-04-30T09:10:14.552Z,33.67
2019-04-30T09:12:46.323Z,34.00
2019-04-30T09:15:18.829Z,35.05
2019-04-30T09:18:00.743Z,35.30
2019-04-30T09:20:24.267Z,35.85
2019-04-30T09:22:56.086Z,35.08
2019-04-30T09:25:28.701Z,30.85
2019-04-30T09:28:00.616Z,29.60
2019-04-30T09:30:33.511Z,28.15
2019-04-30T09:33:05.278Z,29.25
2019-04-30T09:35:39.519Z,33.00
2019-04-30T09:38:11.587Z,29.50
2019-04-30T09:40:43.664Z,42.08
2019-04-30T09:43:15.851Z,38.70
2019-04-30T09:45:51.029Z,32.00
2019-04-30T09:48:25.354Z,32.58
2019-04-30T09:51:01.256Z,30.25
2019-04-30T09:53:33.368Z,31.52
2019-04-30T09:56:05.130Z,32.88
2019-04-30T09:58:40.463Z,45.38
2019-04-30T10:01:12.274Z,44.30
2019-04-30T10:03:44.528Z,43.05
2019-04-30T10:06:16.632Z,43.33
2019-04-30T10:08:51.333Z,36.73
2019-04-30T10:11:42.295Z,43.25
2019-04-30T10:14:14.420Z,54.13
2019-04-30T10:17:20.021Z,37.00
2019-04-30T10:19:54.352Z,29.27
2019-04-30T10:22:26.151Z,34.40
2019-04-30T10:24:59.694Z,30.43
2019-04-30T10:27:31.934Z,40.60
2019-04-30T10:30:03.767Z,35.45
2019-04-30T10:32:35.986Z,24.27
2019-04-30T10:35:07.804Z,25.62
2019-04-30T10:37:39.641Z,30.23
2019-04-30T10:40:11.475Z,28.15
2019-04-30T10:42:43.370Z,29.72
2019-04-30T10:45:15.176Z,22.80
2019-04-30T10:47:46.966Z,29.30
2019-04-30T10:50:21.353Z,29.12
2019-04-30T10:52:53.214Z,25.57
2019-04-30T10:55:24.977Z,21.55
2019-04-30T10:57:59.331Z,26.55
2019-04-30T11:00:39.434Z,22.95
2019-04-30T11:03:19.838Z,21.90
2019-04-30T11:05:45.975Z,23.62
2019-04-30T11:08:17.766Z,23.07
2019-04-30T11:10:49.534Z,27.62
2019-04-30T11:13:22.561Z,27.80
2019-04-30T11:15:54.305Z,27.73
2019-04-30T11:18:26.318Z,32.78
2019-04-30T11:20:59.762Z,25.62
2019-04-30T11:23:35.059Z,27.65
2019-04-30T11:26:07.568Z,29.48
2019-04-30T11:28:39.954Z,35.85
2019-04-30T11:31:36.750Z,35.17
2019-04-30T11:34:08.840Z,28.17
2019-04-30T11:36:42.487Z,26.17
2019-04-30T11:39:18.664Z,28.25
2019-04-30T11:41:50.622Z,23.77
2019-04-30T11:44:31.023Z,25.45
2019-04-30T11:47:29.723Z,33.15
2019-04-30T11:51:01.453Z,27.60
2019-04-30T11:53:33.450Z,23.60
2019-04-30T11:56:05.203Z,28.42
2019-04-30T11:58:38.927Z,27.95
2019-04-30T12:01:11.029Z,27.50
2019-04-30T12:03:42.769Z,26.05
2019-04-30T12:06:14.645Z,32.20
2019-04-30T12:09:03.784Z,29.50
2019-04-30T12:11:37.615Z,26.07
2019-04-30T12:14:09.224Z,30.52
2019-04-30T12:16:40.996Z,27.77
2019-04-30T12:19:13.334Z,29.65
2019-04-30T12:21:46.106Z,31.35
2019-04-30T12:24:17.867Z,29.42
2019-04-30T12:26:50.840Z,22.82
2019-04-30T12:29:22.657Z,24.07
2019-04-30T12:31:54.457Z,22.75
2019-04-30T12:34:26.209Z,25.90
2019-04-30T12:36:59.614Z,23.02
2019-04-30T12:39:34.012Z,34.80
2019-04-30T12:42:08.752Z,28.92
2019-04-30T12:44:40.822Z,22.62
2019-04-30T12:47:12.578Z,30.55
2019-04-30T12:50:04.306Z,28.95
2019-04-30T12:52:40.840Z,23.77
2019-04-30T12:55:33.123Z,27.25
2019-04-30T12:58:06.065Z,27.75
2019-04-30T13:00:39.238Z,25.57
2019-04-30T13:03:11.122Z,32.25
2019-04-30T13:05:43.156Z,36.75
2019-04-30T13:08:16.164Z,28.87
2019-04-30T13:10:51.429Z,27.20
2019-04-30T13:13:26.260Z,30.05
2019-04-30T13:16:00.029Z,30.30
2019-04-30T13:18:33.543Z,28.77
2019-04-30T13:21:05.280Z,25.15
2019-04-30T13:23:38.903Z,24.10
2019-04-30T13:26:10.734Z,27.87
2019-04-30T13:28:55.830Z,24.25
2019-04-30T13:31:29.442Z,31.52
2019-04-30T13:34:25.986Z,22.93
2019-04-30T13:36:59.390Z,23.80
2019-04-30T13:39:50.218Z,23.12
2019-04-30T13:42:20.597Z,21.80
2019-04-30T13:44:52.900Z,23.32
2019-04-30T13:47:25.033Z,25.00
2019-04-30T13:49:56.777Z,20.77
2019-04-30T13:52:28.910Z,18.55
2019-04-30T13:55:03.291Z,20.02
2019-04-30T13:57:35.037Z,20.75
2019-04-30T14:00:08.718Z,17.10
2019-04-30T14:02:47.633Z,14.03
2019-04-30T14:05:19.390Z,22.93
2019-04-30T14:08:13.035Z,18.90
2019-04-30T14:10:45.941Z,18.67
2019-04-30T14:13:17.683Z,18.85
2019-04-30T14:15:49.561Z,14.07
2019-04-30T14:18:28.561Z,15.30
2019-04-30T14:20:54.915Z,16.70
2019-04-30T14:23:28.574Z,18.75
2019-04-30T14:26:01.657Z,15.43
2019-04-30T14:28:33.441Z,16.80
2019-04-30T14:31:05.545Z,15.72
2019-04-30T14:33:37.278Z,15.08
2019-04-30T14:36:09.384Z,17.90
2019-04-30T14:38:41.243Z,18.23
2019-04-30T14:41:14.030Z,33.70
2019-04-30T14:43:52.051Z,19.77
2019-04-30T14:46:43.429Z,22.20
2019-04-30T14:49:33.648Z,15.60
2019-04-30T14:52:06.215Z,18.15
2019-04-30T14:54:58.657Z,16.37
2019-04-30T14:57:51.073Z,18.10
2019-04-30T15:00:40.301Z,16.80
2019-04-30T15:03:14.169Z,16.95
2019-04-30T15:05:49.468Z,23.35
2019-04-30T15:08:19.843Z,21.35
2019-04-30T15:10:51.636Z,18.20
2019-04-30T15:13:23.446Z,18.60
2019-04-30T15:15:55.475Z,18.42
2019-04-30T15:18:29.034Z,12.75
2019-04-30T15:21:00.791Z,12.53
2019-04-30T15:23:58.764Z,11.85
2019-04-30T15:26:25.756Z,16.20
2019-04-30T15:29:00.020Z,15.53
2019-04-30T15:31:32.544Z,16.60
2019-04-30T15:34:12.680Z,17.25
2019-04-30T15:36:44.396Z,17.62
2019-04-30T15:39:36.349Z,21.97
2019-04-30T15:42:09.107Z,16.17
2019-04-30T15:44:45.234Z,14.18
2019-04-30T15:47:14.390Z,14.00
2019-04-30T15:49:46.451Z,15.80
2019-04-30T15:52:18.922Z,16.55
2019-04-30T15:54:51.026Z,18.87
2019-04-30T15:57:22.791Z,18.80
2019-04-30T15:59:54.583Z,17.23
2019-04-30T16:02:57.087Z,20.27
2019-04-30T16:05:32.126Z,21.70
2019-04-30T16:08:25.560Z,19.67
2019-04-30T16:11:14.726Z,21.05
2019-04-30T16:14:18.665Z,19.30
2019-04-30T16:17:15.400Z,21.12
2019-04-30T16:19:47.473Z,16.95
2019-04-30T16:22:20.856Z,21.07
2019-04-30T16:24:54.650Z,16.60
2019-04-30T16:27:26.339Z,15.68
2019-04-30T16:29:59.499Z,17.37
2019-04-30T16:32:31.730Z,13.45
2019-04-30T16:35:03.449Z,13.43
2019-04-30T16:37:35.238Z,18.10
2019-04-30T16:40:08.304Z,13.40
2019-04-30T16:42:40.538Z,20.70
2019-04-30T16:45:14.143Z,10.98
2019-04-30T16:47:45.925Z,11.45
2019-04-30T16:50:18.796Z,14.70
2019-04-30T16:52:52.441Z,13.20
2019-04-30T16:55:24.212Z,14.60
2019-04-30T16:57:56.292Z,10.60
2019-04-30T17:00:29.074Z,9.38
2019-04-30T17:03:06.201Z,12.33
2019-04-30T17:05:45.413Z,18.82
2019-04-30T17:08:40.158Z,10.63
2019-04-30T17:11:33.875Z,16.32
2019-04-30T17:14:07.936Z,14.87
2019-04-30T17:16:40.135Z,13.38
2019-04-30T17:19:13.718Z,13.72
2019-04-30T17:21:46.764Z,13.85
2019-04-30T17:24:19.399Z,10.53
2019-04-30T17:26:51.647Z,18.95
2019-04-30T17:29:23.360Z,13.13
2019-04-30T17:31:55.351Z,11.00
2019-04-30T17:34:29.140Z,18.65
2019-04-30T17:37:00.626Z,14.38
2019-04-30T17:39:34.311Z,12.00
2019-04-30T17:42:06.094Z,9.25
2019-04-30T17:44:53.798Z,11.88
2019-04-30T17:47:15.354Z,9.85
2019-04-30T17:49:48.389Z,10.43
2019-04-30T17:52:22.190Z,13.48
2019-04-30T17:54:56.698Z,14.33
2019-04-30T17:57:33.858Z,10.55
2019-04-30T18:00:02.324Z,15.58
2019-04-30T18:02:39.205Z,16.20
2019-04-30T18:05:13.807Z,17.98
2019-04-30T18:07:45.761Z,13.58
2019-04-30T18:10:19.530Z,10.68
2019-04-30T18:12:51.379Z,13.80
2019-04-30T18:15:23.181Z,11.75
2019-04-30T18:18:12.722Z,13.38
2019-04-30T18:21:21.364Z,14.43
2019-04-30T18:24:24.253Z,11.63
2019-04-30T18:27:14.961Z,10.45
2019-04-30T18:29:47.219Z,13.25
2019-04-30T18:32:20.488Z,13.85
2019-04-30T18:34:52.253Z,10.13
2019-04-30T18:37:24.393Z,10.85
2019-04-30T18:39:56.112Z,9.20
2019-04-30T18:42:29.052Z,9.50
2019-04-30T18:45:01.067Z,12.88
2019-04-30T18:47:34.332Z,10.32
2019-04-30T18:50:06.502Z,14.30
2019-04-30T18:52:40.147Z,12.37
2019-04-30T18:55:11.989Z,13.98
2019-04-30T18:57:55.759Z,21.42
2019-04-30T19:00:21.186Z,17.55
2019-04-30T19:02:52.974Z,13.40
2019-04-30T19:05:29.390Z,16.27
2019-04-30T19:08:06.216Z,13.60
2019-04-30T19:10:58.900Z,14.05
2019-04-30T19:14:01.336Z,16.62
2019-04-30T19:16:53.814Z,21.82
2019-04-30T19:19:47.294Z,24.02
2019-04-30T19:22:19.238Z,14.38
2019-04-30T19:24:57.368Z,17.60
2019-04-30T19:27:24.859Z,14.83
2019-04-30T19:29:56.753Z,16.32
2019-04-30T19:32:30.461Z,21.27
2019-04-30T19:35:02.378Z,27.13
2019-04-30T19:37:38.648Z,34.70
2019-04-30T19:40:11.644Z,29.70
2019-04-30T19:42:43.978Z,21.65
2019-04-30T19:45:15.844Z,21.23
2019-04-30T19:47:48.983Z,21.77
2019-04-30T19:50:21.120Z,15.45
2019-04-30T19:52:53.049Z,19.10
2019-04-30T19:55:24.835Z,24.27
2019-04-30T19:57:59.715Z,27.30
2019-04-30T20:00:31.147Z,21.33
2019-04-30T20:03:03.103Z,29.60
2019-04-30T20:05:35.386Z,29.07
2019-04-30T20:08:10.813Z,24.30
2019-04-30T20:10:41.138Z,31.02
2019-04-30T20:13:13.018Z,26.52
2019-04-30T20:15:44.855Z,27.02
2019-04-30T20:18:19.000Z,28.98
2019-04-30T20:20:52.701Z,31.77
2019-04-30T20:23:26.393Z,29.95
2019-04-30T20:25:58.354Z,26.93
2019-04-30T20:28:38.927Z,28.92
2019-04-30T20:31:04.317Z,34.63
2019-04-30T20:33:36.129Z,38.42
2019-04-30T20:36:09.186Z,37.83
2019-04-30T20:39:18.413Z,29.92
2019-04-30T20:41:52.867Z,32.85
2019-04-30T20:44:24.700Z,31.07
2019-04-30T20:46:56.548Z,32.25
2019-04-30T20:49:29.204Z,38.38
2019-04-30T20:52:03.553Z,35.25
2019-04-30T20:54:38.956Z,42.75
2019-04-30T20:57:10.736Z,29.57
2019-04-30T20:59:42.595Z,38.23
2019-04-30T21:02:18.770Z,33.40
2019-04-30T21:04:52.338Z,35.60
2019-04-30T21:07:24.140Z,28.77
2019-04-30T21:09:58.305Z,38.42
2019-04-30T21:12:30.037Z,30.30
2019-04-30T21:15:01.941Z,42.08
2019-04-30T21:17:34.921Z,37.20
2019-04-30T21:20:09.484Z,30.48
2019-04-30T21:22:42.204Z,33.28
2019-04-30T21:25:14.052Z,36.58
2019-04-30T21:27:45.919Z,32.70
2019-04-30T21:30:17.767Z,38.83
2019-04-30T21:33:11.240Z,40.55
2019-04-30T21:36:08.803Z,34.08
2019-04-30T21:38:41.907Z,30.00
2019-04-30T21:41:19.577Z,35.03
2019-04-30T21:43:51.727Z,34.75
2019-04-30T21:46:25.217Z,37.35
2019-04-30T21:48:58.724Z,35.78
2019-04-30T21:51:30.801Z,34.70
2019-04-30T21:54:02.831Z,40.05
2019-04-30T21:56:37.583Z,40.23
2019-04-30T21:59:23.541Z,40.05
2019-04-30T22:01:44.522Z,38.88
2019-04-30T22:04:16.493Z,34.78
2019-04-30T22:06:49.475Z,41.35
2019-04-30T22:09:21.719Z,35.58
2019-04-30T22:11:53.548Z,42.60
2019-04-30T22:14:25.449Z,40.33
2019-04-30T22:16:59.548Z,33.85
2019-04-30T22:19:31.319Z,40.50
2019-04-30T22:22:03.182Z,33.65
2019-04-30T22:24:35.089Z,37.58
2019-04-30T22:27:06.991Z,44.65
2019-04-30T22:29:42.320Z,43.23
2019-04-30T22:32:14.230Z,37.95
2019-04-30T22:34:46.025Z,34.75
2019-04-30T22:37:19.619Z,39.13
2019-04-30T22:40:02.887Z,39.35
2019-04-30T22:42:36.912Z,45.03
2019-04-30T22:45:30.627Z,36.68
2019-04-30T22:48:02.970Z,40.05
2019-04-30T22:50:35.213Z,39.40
2019-04-30T22:53:07.091Z,53.50
2019-04-30T22:55:38.872Z,35.55
2019-04-30T22:58:12.118Z,45.55
2019-04-30T23:00:46.008Z,40.50
2019-04-30T23:03:24.265Z,35.35
2019-04-30T23:05:56.163Z,40.65
2019-04-30T23:08:28.110Z,41.85
2019-04-30T23:11:00.410Z,41.73
2019-04-30T23:13:32.194Z,43.65
2019-04-30T23:16:04.115Z,43.00
2019-04-30T23:18:38.982Z,45.40
2019-04-30T23:21:11.983Z,43.15
2019-04-30T23:23:43.839Z,44.25
2019-04-30T23:26:15.676Z,44.23
2019-04-30T23:28:49.163Z,47.27
2019-04-30T23:31:21.496Z,41.18
2019-04-30T23:33:53.474Z,46.80
2019-04-30T23:36:25.243Z,44.53
2019-04-30T23:38:59.396Z,40.25
2019-04-30T23:41:33.709Z,43.73
2019-04-30T23:44:06.466Z,38.63
2019-04-30T23:46:39.791Z,41.48
2019-04-30T23:49:11.834Z,44.65
2019-04-30T23:51:43.667Z,40.25
2019-04-30T23:54:15.979Z,43.35
2019-04-30T23:56:47.803Z,43.73
2019-04-30T23:59:19.662Z,43.17
